Time;durP1;ratioP1;P1;durP2;ratioP2;P2;SDS_P1;SDS_P2;PMS_P1;PMS_P2;Temp;Humidity;BMP_temperature;BMP_pressure;BME280_temperature;BME280_humidity;BME280_pressure;Samples;Min_cycle;Max_cycle;Signal;HPM_P1;HPM_P2
2023/02/27 00:01:32;;;;;;;2.47;1.47;;;0.30;63.40;;;;;;5103167;28;20179;-89
2023/02/27 00:03:57;;;;;;;1.77;1.50;;;0.20;63.40;;;;;;5103062;28;20211;-87
2023/02/27 00:06:23;;;;;;;2.80;2.13;;;0.20;63.60;;;;;;5100901;28;20644;-86
2023/02/27 00:08:49;;;;;;;3.03;1.83;;;0.30;63.60;;;;;;5097483;28;20190;-86
2023/02/27 00:11:14;;;;;;;2.83;1.80;;;0.20;63.70;;;;;;5096377;28;20759;-88
2023/02/27 00:13:40;;;;;;;1.80;1.60;;;0.20;63.60;;;;;;5096507;28;20540;-85
2023/02/27 00:16:06;;;;;;;4.67;2.00;;;0.20;64.20;;;;;;5099740;28;20182;-87
2023/02/27 00:18:32;;;;;;;1.83;1.43;;;0.20;64.10;;;;;;5081018;28;20529;-87
2023/02/27 00:20:57;;;;;;;3.23;1.77;;;0.10;64.00;;;;;;5083121;28;20178;-87
2023/02/27 00:23:23;;;;;;;1.60;1.50;;;0.10;64.20;;;;;;5101687;28;20179;-88
2023/02/27 00:25:49;;;;;;;1.80;1.70;;;0.10;64.60;;;;;;5084357;28;20270;-85
2023/02/27 00:28:18;;;;;;;1.87;1.50;;;0.20;64.70;;;;;;5102271;28;20209;-87
2023/02/27 00:30:43;;;;;;;2.30;1.70;;;0.20;64.30;;;;;;5102825;28;20208;-88
2023/02/27 00:33:09;;;;;;;2.07;1.60;;;0.20;64.40;;;;;;5103048;28;20251;-87
2023/02/27 00:35:35;;;;;;;2.50;1.80;;;0.20;64.30;;;;;;5102653;28;20187;-85
2023/02/27 00:38:00;;;;;;;2.03;1.70;;;0.20;64.50;;;;;;5102698;28;20194;-87
2023/02/27 00:40:26;;;;;;;2.57;1.83;;;0.20;64.50;;;;;;5098243;28;20256;-87
2023/02/27 00:42:52;;;;;;;2.60;1.63;;;0.20;64.70;;;;;;5098233;28;20209;-86
2023/02/27 00:45:19;;;;;;;2.23;2.00;;;0.20;64.90;;;;;;5107725;28;20285;-89
2023/02/27 00:47:45;;;;;;;3.10;1.63;;;0.20;65.00;;;;;;5111560;28;20198;-87
2023/02/27 00:50:12;;;;;;;2.37;1.93;;;0.20;64.70;;;;;;5100101;28;20170;-86
2023/02/27 00:52:37;;;;;;;1.83;1.70;;;0.20;64.90;;;;;;5102658;28;20174;-87
2023/02/27 00:55:04;;;;;;;3.07;2.07;;;0.20;64.70;;;;;;5098974;28;20203;-87
2023/02/27 00:57:29;;;;;;;1.93;1.70;;;0.10;64.90;;;;;;5107971;28;20194;-88
2023/02/27 00:59:55;;;;;;;2.10;1.90;;;0.10;65.20;;;;;;5111777;28;20218;-88
2023/02/27 01:02:21;;;;;;;3.50;2.23;;;0.10;65.40;;;;;;5110438;28;20171;-90
2023/02/27 01:04:47;;;;;;;1.77;1.60;;;0.10;65.40;;;;;;5091185;28;20293;-90
2023/02/27 01:07:12;;;;;;;4.17;2.07;;;0.10;65.40;;;;;;5112639;28;20240;-88
2023/02/27 01:09:38;;;;;;;2.43;1.97;;;0.10;65.90;;;;;;5112598;28;20241;-88
2023/02/27 01:12:04;;;;;;;2.87;2.23;;;0.10;65.80;;;;;;5094277;28;20202;-87
2023/02/27 01:14:30;;;;;;;3.27;2.33;;;0.10;66.30;;;;;;5112989;28;20171;-88
2023/02/27 01:16:56;;;;;;;2.77;1.83;;;0.10;65.90;;;;;;5111901;28;20174;-89
2023/02/27 01:19:23;;;;;;;2.10;1.90;;;0.10;65.70;;;;;;5114160;28;20190;-90
2023/02/27 01:21:48;;;;;;;4.07;2.00;;;0.00;66.30;;;;;;5112854;28;20227;-88
2023/02/27 01:24:14;;;;;;;2.80;2.13;;;0.00;66.60;;;;;;5113654;28;20213;-87
2023/02/27 01:26:40;;;;;;;3.73;2.40;;;0.10;66.80;;;;;;5106890;28;20187;-88
2023/02/27 01:29:06;;;;;;;5.13;2.50;;;0.00;66.90;;;;;;5103400;28;20195;-86
2023/02/27 01:31:32;;;;;;;3.40;2.30;;;0.10;66.80;;;;;;5099214;28;20182;-87
2023/02/27 01:33:57;;;;;;;4.47;2.17;;;0.10;67.30;;;;;;5098246;28;20175;-86
2023/02/27 01:36:23;;;;;;;3.80;2.60;;;0.10;67.20;;;;;;5092712;28;20184;-85
2023/02/27 01:38:48;;;;;;;2.50;2.07;;;0.10;66.80;;;;;;5090891;28;20210;-86
2023/02/27 01:41:14;;;;;;;3.73;2.30;;;0.00;67.00;;;;;;5080884;28;20182;-87
2023/02/27 01:44:13;;;;;;;3.57;2.00;;;0.00;67.60;;;;;;5099831;28;20197;-86
2023/02/27 01:46:39;;;;;;;2.47;1.70;;;0.00;68.10;;;;;;5044736;28;20220;-89
2023/02/27 01:49:15;;;;;;;3.03;2.20;;;0.00;68.10;;;;;;5100389;28;20229;-88
2023/02/27 01:51:50;;;;;;;2.53;1.87;;;0.10;67.70;;;;;;5100847;28;20186;-87
2023/02/27 01:54:20;;;;;;;2.70;2.10;;;0.00;67.60;;;;;;5099311;28;20183;-88
2023/02/27 01:56:46;;;;;;;4.33;2.43;;;0.10;68.20;;;;;;5100940;28;20178;-87
2023/02/27 01:59:14;;;;;;;2.37;1.93;;;0.00;68.00;;;;;;5099761;28;20206;-87
2023/02/27 02:01:39;;;;;;;2.30;1.93;;;-0.10;68.70;;;;;;5099539;28;20221;-88
2023/02/27 02:04:20;;;;;;;2.83;2.20;;;-0.10;68.40;;;;;;5098383;28;20665;-87
2023/02/27 02:06:49;;;;;;;8.20;2.50;;;0.00;68.80;;;;;;5097455;28;20175;-89
2023/02/27 02:09:17;;;;;;;2.40;2.20;;;0.00;68.60;;;;;;5080744;28;20209;-85
2023/02/27 02:11:43;;;;;;;4.77;2.70;;;0.00;68.90;;;;;;5099114;28;20178;-86
2023/02/27 02:14:09;;;;;;;4.23;2.30;;;-0.10;68.80;;;;;;5099595;28;20660;-87
2023/02/27 02:16:47;;;;;;;2.17;1.97;;;-0.10;68.70;;;;;;5100136;28;20217;-87
2023/02/27 02:19:27;;;;;;;3.40;2.30;;;-0.20;69.10;;;;;;5105743;28;20237;-87
2023/02/27 02:22:11;;;;;;;2.33;2.10;;;-0.20;69.90;;;;;;5105557;28;20193;-88
2023/02/27 02:24:53;;;;;;;1.83;1.73;;;-0.20;70.10;;;;;;5105969;28;20261;-87
2023/02/27 02:27:33;;;;;;;1.87;1.70;;;-0.20;70.40;;;;;;5106801;28;20170;-89
2023/02/27 02:30:18;;;;;;;3.57;2.00;;;-0.20;69.70;;;;;;5109575;28;20209;-87
2023/02/27 02:32:49;;;;;;;2.97;2.10;;;-0.20;70.00;;;;;;5114739;28;20197;-88
2023/02/27 02:35:23;;;;;;;3.27;2.00;;;-0.20;70.20;;;;;;5113687;28;20158;-87
2023/02/27 02:38:10;;;;;;;2.63;2.00;;;-0.20;70.80;;;;;;5114162;28;20183;-88
2023/02/27 02:40:36;;;;;;;3.70;2.10;;;-0.20;70.30;;;;;;5108118;28;20189;-87
2023/02/27 02:43:13;;;;;;;3.20;2.07;;;-0.30;70.20;;;;;;5103405;28;20254;-87
2023/02/27 02:45:42;;;;;;;4.27;2.07;;;-0.30;70.60;;;;;;5083505;28;20210;-88
2023/02/27 02:48:28;;;;;;;3.10;2.20;;;-0.30;70.80;;;;;;5102187;28;20214;-87
2023/02/27 02:51:03;;;;;;;2.07;1.80;;;-0.30;70.90;;;;;;5083611;28;20197;-87
2023/02/27 02:53:53;;;;;;;2.30;1.77;;;-0.40;71.20;;;;;;5082040;28;20172;-87
2023/02/27 02:56:34;;;;;;;1.90;1.70;;;-0.30;73.00;;;;;;5061283;28;20168;-86
2023/02/27 03:01:50;;;;;;;3.07;1.70;;;-0.30;71.60;;;;;;5113852;23;20238;-83
2023/02/27 03:04:26;;;;;;;3.30;1.90;;;-0.30;70.90;;;;;;5098282;28;20195;-87
2023/02/27 03:07:00;;;;;;;2.43;2.00;;;-0.30;70.80;;;;;;5097333;28;20245;-83
2023/02/27 03:09:34;;;;;;;2.30;1.70;;;-0.20;71.10;;;;;;5098227;28;20171;-83
2023/02/27 03:12:04;;;;;;;2.20;1.57;;;-0.20;70.90;;;;;;5099185;28;20304;-83
2023/02/27 03:14:38;;;;;;;3.53;1.90;;;-0.10;71.00;;;;;;5099484;28;20175;-83
2023/02/27 03:17:14;;;;;;;3.73;1.90;;;-0.10;69.80;;;;;;5100284;28;20544;-83
2023/02/27 03:19:51;;;;;;;1.93;1.80;;;-0.20;70.20;;;;;;5101666;28;20190;-81
2023/02/27 03:22:22;;;;;;;2.53;1.83;;;-0.20;70.10;;;;;;5101142;28;20179;-81
2023/02/27 03:24:52;;;;;;;1.67;1.50;;;-0.10;70.70;;;;;;5100027;28;20203;-82
2023/02/27 03:27:18;;;;;;;3.80;1.87;;;-0.20;69.90;;;;;;5100819;28;20182;-84
2023/02/27 03:29:56;;;;;;;2.20;1.90;;;-0.20;70.10;;;;;;5095370;28;20198;-83
2023/02/27 03:32:41;;;;;;;2.07;1.63;;;-0.30;70.40;;;;;;5098733;28;20167;-84
2023/02/27 03:35:09;;;;;;;2.20;1.90;;;-0.30;70.60;;;;;;5099780;28;20159;-83
2023/02/27 03:37:59;;;;;;;2.00;1.90;;;-0.30;70.70;;;;;;5099872;28;20183;-82
2023/02/27 03:40:36;;;;;;;2.67;2.03;;;-0.30;71.00;;;;;;5099783;28;20336;-82
2023/02/27 03:43:29;;;;;;;2.70;1.90;;;-0.40;71.50;;;;;;5100653;28;20922;-83
2023/02/27 03:45:58;;;;;;;2.10;1.90;;;-0.40;71.00;;;;;;5101150;28;20248;-83
2023/02/27 03:48:24;;;;;;;1.83;1.73;;;-0.40;70.80;;;;;;5098883;28;20739;-83
2023/02/27 03:50:50;;;;;;;1.80;1.70;;;-0.40;71.30;;;;;;5100048;28;20190;-85
2023/02/27 03:53:56;;;;;;;2.20;1.70;;;-0.40;71.00;;;;;;5101185;28;20179;-84
2023/02/27 03:56:30;;;;;;;2.20;1.90;;;-0.50;71.30;;;;;;5068439;28;20692;-82
2023/02/27 03:58:56;;;;;;;1.93;1.73;;;-0.50;71.60;;;;;;5099611;28;20179;-83
2023/02/27 04:01:22;;;;;;;2.27;1.80;;;-0.60;71.40;;;;;;5097731;28;20211;-84
2023/02/27 04:04:00;;;;;;;3.30;1.50;;;-0.50;71.80;;;;;;5096930;28;20182;-84
2023/02/27 04:09:16;;;;;;;2.60;1.83;;;-0.50;71.70;;;;;;5097512;28;20217;-83
2023/02/27 04:12:17;;;;;;;1.90;1.80;;;-0.40;71.20;;;;;;5096702;28;20162;-83
2023/02/27 04:15:10;;;;;;;1.87;1.77;;;-0.60;71.60;;;;;;5095910;28;20729;-81
2023/02/27 04:18:14;;;;;;;1.90;1.43;;;-0.60;71.60;;;;;;5096817;28;20642;-84
2023/02/27 04:21:05;;;;;;;1.90;1.80;;;-0.60;72.00;;;;;;5069727;28;20199;-85
2023/02/27 04:23:51;;;;;;;2.20;1.80;;;-0.50;71.50;;;;;;5078547;28;20566;-83
2023/02/27 04:26:19;;;;;;;2.40;1.70;;;-0.50;72.20;;;;;;5078659;28;20203;-82
2023/02/27 04:29:08;;;;;;;2.73;2.13;;;-0.60;71.10;;;;;;5097237;28;20186;-81
2023/02/27 04:31:44;;;;;;;2.07;1.70;;;-0.60;71.70;;;;;;5096284;28;20771;-83
2023/02/27 04:34:27;;;;;;;2.90;2.00;;;-0.60;71.60;;;;;;5097429;28;20264;-82
2023/02/27 04:37:04;;;;;;;2.17;1.63;;;-0.60;71.70;;;;;;5097715;28;20192;-82
2023/02/27 04:39:37;;;;;;;2.37;1.70;;;-0.70;73.20;;;;;;5098682;28;20214;-82
2023/02/27 04:42:15;;;;;;;2.20;1.80;;;-0.60;73.70;;;;;;5096198;28;20244;-83
2023/02/27 04:44:41;;;;;;;2.77;1.70;;;-0.60;71.70;;;;;;5097669;28;20550;-83
2023/02/27 04:47:10;;;;;;;2.07;1.80;;;-0.60;72.00;;;;;;5098284;28;20652;-84
2023/02/27 04:49:45;;;;;;;2.63;2.30;;;-0.60;71.20;;;;;;5097136;28;20295;-83
2023/02/27 04:52:13;;;;;;;2.10;2.00;;;-0.70;72.30;;;;;;5095697;28;20221;-82
2023/02/27 04:54:42;;;;;;;2.47;2.23;;;-0.60;72.50;;;;;;5095138;28;20644;-85
2023/02/27 04:57:15;;;;;;;2.10;1.90;;;-0.70;70.90;;;;;;5094485;28;20187;-83
2023/02/27 04:59:47;;;;;;;3.33;1.97;;;-0.70;71.50;;;;;;5092844;28;20627;-83
2023/02/27 05:02:24;;;;;;;3.07;1.80;;;-0.70;72.40;;;;;;5094368;28;20359;-83
2023/02/27 05:04:55;;;;;;;4.80;2.50;;;-0.60;72.10;;;;;;5094981;28;20610;-83
2023/02/27 05:07:29;;;;;;;4.47;4.07;;;-0.70;71.40;;;;;;5098208;28;20204;-83
2023/02/27 05:09:59;;;;;;;2.60;2.30;;;-0.70;71.60;;;;;;5096382;28;20206;-84
2023/02/27 05:12:37;;;;;;;3.10;2.87;;;-0.70;71.80;;;;;;5097902;28;20179;-82
2023/02/27 05:15:29;;;;;;;3.53;3.23;;;-0.60;71.60;;;;;;5097121;28;20183;-83
2023/02/27 05:18:01;;;;;;;4.77;3.57;;;-0.80;71.40;;;;;;5095995;28;20163;-82
2023/02/27 05:20:47;;;;;;;2.33;2.13;;;-0.70;71.70;;;;;;5096469;28;20202;-81
2023/02/27 05:23:44;;;;;;;3.17;2.50;;;-0.70;72.80;;;;;;5101748;28;20187;-80
2023/02/27 05:26:24;;;;;;;3.07;2.70;;;-0.70;71.70;;;;;;5097225;28;20661;-83
2023/02/27 05:28:57;;;;;;;4.03;2.53;;;-0.70;71.90;;;;;;5095300;28;20266;-82
2023/02/27 05:31:39;;;;;;;3.90;2.73;;;-0.70;71.00;;;;;;5097848;28;20199;-85
2023/02/27 05:34:16;;;;;;;3.77;2.80;;;-0.80;71.30;;;;;;5097110;28;20178;-83
2023/02/27 05:37:02;;;;;;;2.60;2.40;;;-0.80;72.10;;;;;;5097819;28;20166;-83
2023/02/27 05:39:31;;;;;;;3.80;2.70;;;-0.80;71.70;;;;;;5097478;28;20199;-82
2023/02/27 05:42:05;;;;;;;6.00;2.60;;;-0.70;72.10;;;;;;5098040;28;20210;-82
2023/02/27 05:44:34;;;;;;;6.27;3.93;;;-0.80;71.20;;;;;;5097307;28;20208;-83
2023/02/27 05:47:15;;;;;;;6.63;3.70;;;-0.80;71.40;;;;;;5095945;28;20235;-82
2023/02/27 05:49:42;;;;;;;4.63;3.07;;;-0.90;72.30;;;;;;5095127;28;20240;-83
2023/02/27 05:52:15;;;;;;;5.50;4.87;;;-1.00;72.40;;;;;;5094026;28;20239;-82
2023/02/27 05:54:49;;;;;;;26.23;13.30;;;-1.00;72.40;;;;;;5092350;28;20187;-82
2023/02/27 05:57:23;;;;;;;11.97;7.47;;;-1.00;72.00;;;;;;5093711;28;20186;-82
2023/02/27 06:00:08;;;;;;;8.70;5.30;;;-1.10;72.30;;;;;;5094721;28;20213;-82
2023/02/27 06:02:33;;;;;;;5.87;4.00;;;-1.00;72.90;;;;;;5096132;28;20190;-81
2023/02/27 06:04:59;;;;;;;4.60;4.10;;;-1.10;72.60;;;;;;5093935;28;20355;-80
2023/02/27 06:07:25;;;;;;;11.80;8.03;;;-1.00;73.40;;;;;;5096287;28;20186;-82
2023/02/27 06:09:50;;;;;;;16.63;11.10;;;-1.00;72.30;;;;;;5097515;28;20198;-82
2023/02/27 06:12:16;;;;;;;36.37;23.40;;;-1.00;72.20;;;;;;5097867;28;20247;-83
2023/02/27 06:14:42;;;;;;;11.47;7.77;;;-1.00;72.30;;;;;;5096899;28;20757;-82
2023/02/27 06:17:07;;;;;;;5.40;3.50;;;-1.00;72.20;;;;;;5097780;28;20269;-84
2023/02/27 06:19:33;;;;;;;5.33;3.87;;;-1.00;72.10;;;;;;5097520;28;20797;-83
2023/02/27 06:21:59;;;;;;;3.47;3.00;;;-1.00;72.10;;;;;;5097958;28;20187;-85
2023/02/27 06:24:25;;;;;;;5.33;3.53;;;-1.00;72.20;;;;;;5098596;28;20214;-81
2023/02/27 06:26:51;;;;;;;4.57;2.27;;;-1.00;71.80;;;;;;5097164;28;20198;-83
2023/02/27 06:29:16;;;;;;;4.20;3.23;;;-0.90;71.60;;;;;;5097727;28;20179;-83
2023/02/27 06:31:42;;;;;;;2.70;2.40;;;-0.90;72.50;;;;;;5098409;28;20183;-82
2023/02/27 06:34:07;;;;;;;5.27;4.87;;;-0.90;71.60;;;;;;5098778;28;20294;-82
2023/02/27 06:36:33;;;;;;;4.03;2.40;;;-0.80;71.90;;;;;;5096956;28;20266;-82
2023/02/27 06:38:59;;;;;;;3.23;2.87;;;-0.90;71.30;;;;;;5087602;28;20681;-82
2023/02/27 06:41:24;;;;;;;4.17;2.53;;;-0.90;71.70;;;;;;5076096;28;20211;-83
2023/02/27 06:43:50;;;;;;;2.63;2.10;;;-0.90;71.60;;;;;;5091897;28;20187;-83
2023/02/27 06:46:16;;;;;;;3.27;2.00;;;-0.90;71.20;;;;;;5098356;28;20211;-81
2023/02/27 06:48:41;;;;;;;3.87;2.20;;;-1.00;71.20;;;;;;5097045;28;20187;-83
2023/02/27 06:51:07;;;;;;;3.50;2.70;;;-0.90;71.50;;;;;;5100469;28;20214;-82
2023/02/27 06:53:32;;;;;;;2.40;2.03;;;-0.90;71.30;;;;;;5085318;28;20277;-82
2023/02/27 06:55:58;;;;;;;7.07;3.80;;;-0.90;71.10;;;;;;5075203;28;20191;-83
2023/02/27 06:58:24;;;;;;;4.07;2.80;;;-0.90;71.50;;;;;;5073133;28;20190;-80
2023/02/27 07:00:49;;;;;;;3.20;2.73;;;-0.80;71.30;;;;;;5078780;28;20240;-83
2023/02/27 07:03:15;;;;;;;3.70;2.63;;;-0.70;72.10;;;;;;5080346;28;20190;-82
2023/02/27 07:05:41;;;;;;;3.97;2.87;;;-0.70;70.50;;;;;;5082951;28;20211;-84
2023/02/27 07:08:07;;;;;;;3.73;2.60;;;-0.60;69.90;;;;;;5080072;28;20266;-81
2023/02/27 07:10:33;;;;;;;3.73;2.53;;;-0.70;69.80;;;;;;5079495;28;20308;-82
2023/02/27 07:12:58;;;;;;;4.60;2.70;;;-0.70;69.40;;;;;;5075684;28;20221;-81
2023/02/27 07:15:24;;;;;;;2.63;2.20;;;-0.70;69.40;;;;;;5080827;28;20199;-81
2023/02/27 07:17:50;;;;;;;5.13;3.37;;;-0.70;69.60;;;;;;5084624;28;20326;-84
2023/02/27 07:20:15;;;;;;;4.70;2.83;;;-0.60;69.80;;;;;;5085605;28;20199;-82
2023/02/27 07:22:41;;;;;;;4.97;2.50;;;-0.60;69.90;;;;;;5088055;28;20191;-83
2023/02/27 07:25:08;;;;;;;4.67;2.60;;;-0.50;69.40;;;;;;5091004;28;20198;-83
2023/02/27 07:27:33;;;;;;;3.63;2.73;;;-0.50;69.10;;;;;;5076116;28;20176;-81
2023/02/27 07:29:59;;;;;;;3.73;2.43;;;-0.50;68.80;;;;;;5076696;28;20210;-80
2023/02/27 07:32:25;;;;;;;2.43;2.23;;;-0.40;69.10;;;;;;5085882;28;20183;-82
2023/02/27 07:34:51;;;;;;;2.73;2.30;;;-0.50;68.70;;;;;;5091231;28;20195;-82
2023/02/27 07:37:17;;;;;;;2.40;2.20;;;-0.40;68.40;;;;;;5094314;28;20617;-82
2023/02/27 07:39:43;;;;;;;3.97;2.40;;;-0.40;68.00;;;;;;5097227;28;20306;-83
2023/02/27 07:42:09;;;;;;;3.80;2.53;;;-0.40;69.00;;;;;;5098169;28;20210;-83
2023/02/27 07:44:35;;;;;;;3.17;2.23;;;-0.30;68.10;;;;;;5095717;28;20645;-82
2023/02/27 07:47:00;;;;;;;4.70;2.60;;;-0.20;67.80;;;;;;5095729;28;20193;-84
2023/02/27 07:49:26;;;;;;;3.40;2.60;;;-0.10;67.50;;;;;;5097618;28;20179;-81
2023/02/27 07:51:52;;;;;;;4.43;3.67;;;-0.10;67.30;;;;;;5096916;28;20679;-84
2023/02/27 07:54:17;;;;;;;3.73;2.73;;;-0.10;66.50;;;;;;5097512;28;20670;-83
2023/02/27 07:56:43;;;;;;;6.30;2.70;;;0.00;66.20;;;;;;5097003;28;20191;-81
2023/02/27 07:59:09;;;;;;;3.07;2.77;;;0.00;66.80;;;;;;5098577;28;20214;-82
2023/02/27 08:01:34;;;;;;;2.83;2.57;;;0.10;66.10;;;;;;5098312;28;20198;-83
2023/02/27 08:04:00;;;;;;;2.87;2.40;;;0.10;64.90;;;;;;5099330;28;20274;-84
2023/02/27 08:06:25;;;;;;;3.97;2.87;;;0.00;65.10;;;;;;5099059;28;20254;-82
2023/02/27 08:08:51;;;;;;;2.33;2.13;;;0.00;65.20;;;;;;5099494;28;20559;-81
2023/02/27 08:11:17;;;;;;;4.47;2.53;;;0.10;64.70;;;;;;5098350;28;20312;-83
2023/02/27 08:13:44;;;;;;;2.97;2.60;;;0.10;64.50;;;;;;5098319;28;20761;-82
2023/02/27 08:16:10;;;;;;;3.57;2.50;;;0.20;64.30;;;;;;5096993;28;20227;-83
2023/02/27 08:18:35;;;;;;;6.53;5.93;;;0.30;64.00;;;;;;5097999;28;20210;-82
2023/02/27 08:21:03;;;;;;;2.43;2.20;;;0.40;63.60;;;;;;5097624;28;20209;-81
2023/02/27 08:23:30;;;;;;;3.60;2.90;;;0.40;63.10;;;;;;5097576;28;20738;-83
2023/02/27 08:25:57;;;;;;;3.03;2.80;;;0.50;62.90;;;;;;5096347;28;20206;-80
2023/02/27 08:28:23;;;;;;;2.70;2.50;;;0.50;63.20;;;;;;5097370;28;20203;-82
2023/02/27 08:30:48;;;;;;;2.43;2.23;;;0.60;63.00;;;;;;5097352;28;20572;-81
2023/02/27 08:33:14;;;;;;;2.20;2.00;;;0.60;61.70;;;;;;5097926;28;20243;-81
2023/02/27 08:35:39;;;;;;;3.23;2.10;;;0.70;61.80;;;;;;5094150;28;20187;-83
2023/02/27 08:38:05;;;;;;;4.47;2.77;;;0.80;61.50;;;;;;5098005;28;20563;-79
2023/02/27 08:40:31;;;;;;;3.80;2.70;;;0.80;61.70;;;;;;5098862;28;20213;-81
2023/02/27 08:42:57;;;;;;;5.30;2.20;;;1.00;60.80;;;;;;5098291;28;20304;-83
2023/02/27 08:45:22;;;;;;;2.40;2.20;;;1.00;60.80;;;;;;5095430;28;20668;-83
2023/02/27 08:47:48;;;;;;;3.37;2.50;;;1.10;59.90;;;;;;5094598;28;20182;-82
2023/02/27 08:50:14;;;;;;;2.60;2.23;;;1.10;59.90;;;;;;5095713;28;20676;-81
2023/02/27 08:52:39;;;;;;;3.40;2.47;;;1.10;59.40;;;;;;5097200;28;20183;-82
2023/02/27 08:55:06;;;;;;;3.83;2.73;;;1.10;59.70;;;;;;5094547;28;20210;-81
2023/02/27 08:57:32;;;;;;;3.37;2.50;;;1.20;59.70;;;;;;5095831;28;20329;-80
2023/02/27 08:59:57;;;;;;;2.30;2.20;;;1.30;58.90;;;;;;5097228;28;20260;-83
2023/02/27 09:02:25;;;;;;;2.80;2.50;;;1.30;58.20;;;;;;5098223;28;20371;-83
2023/02/27 09:04:51;;;;;;;2.63;2.40;;;1.30;58.60;;;;;;5098387;28;20735;-82
2023/02/27 09:07:17;;;;;;;3.87;2.43;;;1.40;58.70;;;;;;5095727;28;20197;-81
2023/02/27 09:09:42;;;;;;;2.33;2.13;;;1.50;58.20;;;;;;5095941;28;20281;-82
2023/02/27 09:12:08;;;;;;;2.73;2.30;;;1.50;58.10;;;;;;5099114;28;20179;-82
2023/02/27 09:14:34;;;;;;;3.73;2.50;;;1.60;57.60;;;;;;5096666;28;20187;-82
2023/02/27 09:16:59;;;;;;;2.50;2.30;;;1.70;57.10;;;;;;5097835;28;20644;-82
2023/02/27 09:19:25;;;;;;;3.33;2.60;;;1.70;56.90;;;;;;5096440;28;20580;-82
2023/02/27 09:21:51;;;;;;;2.90;2.27;;;1.70;56.30;;;;;;5092855;28;20186;-82
2023/02/27 09:24:17;;;;;;;4.13;2.50;;;1.80;55.50;;;;;;5095476;28;20182;-82
2023/02/27 09:26:42;;;;;;;2.63;2.13;;;1.90;55.10;;;;;;5095617;28;20185;-80
2023/02/27 09:29:08;;;;;;;3.30;2.60;;;1.90;54.70;;;;;;5095435;28;20673;-82
2023/02/27 09:31:34;;;;;;;3.20;2.13;;;1.90;54.40;;;;;;5094839;28;20354;-82
2023/02/27 09:34:00;;;;;;;3.33;2.37;;;1.90;54.20;;;;;;5093964;28;20179;-82
2023/02/27 09:36:26;;;;;;;6.77;2.30;;;2.00;54.40;;;;;;5092997;28;20187;-81
2023/02/27 09:38:52;;;;;;;2.93;2.13;;;2.30;53.50;;;;;;5093228;28;20242;-83
2023/02/27 09:41:40;;;;;;;2.00;1.77;;;2.40;52.80;;;;;;5092712;28;20254;-82
2023/02/27 09:44:20;;;;;;;2.50;2.30;;;2.30;52.10;;;;;;5092370;28;20517;-79
2023/02/27 09:46:45;;;;;;;3.40;2.17;;;2.40;51.90;;;;;;5092664;28;20159;-82
2023/02/27 09:49:17;;;;;;;2.40;2.20;;;2.50;51.00;;;;;;5094602;28;20697;-83
2023/02/27 09:51:43;;;;;;;2.40;2.10;;;2.60;50.50;;;;;;5094289;28;20194;-79
2023/02/27 09:54:10;;;;;;;3.23;2.00;;;2.70;50.10;;;;;;5095162;28;20864;-82
2023/02/27 09:56:45;;;;;;;3.53;2.30;;;2.90;50.10;;;;;;5093323;28;20198;-81
2023/02/27 09:59:35;;;;;;;3.13;2.10;;;3.10;49.80;;;;;;5097492;28;20170;-82
2023/02/27 10:02:19;;;;;;;4.57;2.07;;;3.30;48.60;;;;;;5092625;28;20198;-83
2023/02/27 10:05:10;;;;;;;4.23;2.77;;;3.40;48.10;;;;;;5092594;28;20260;-82
2023/02/27 10:07:53;;;;;;;3.80;2.13;;;3.40;47.20;;;;;;5079211;28;20187;-82
2023/02/27 10:10:42;;;;;;;2.00;1.90;;;3.30;47.40;;;;;;5096467;28;20199;-83
2023/02/27 10:13:29;;;;;;;2.50;1.87;;;3.20;47.20;;;;;;5095613;28;20178;-81
2023/02/27 10:15:56;;;;;;;2.20;2.00;;;3.30;45.90;;;;;;5095760;28;20194;-81
2023/02/27 10:18:27;;;;;;;2.47;2.03;;;3.60;45.70;;;;;;5095341;28;20187;-82
2023/02/27 10:21:10;;;;;;;4.80;1.90;;;3.80;45.10;;;;;;5096231;28;20211;-82
2023/02/27 10:24:00;;;;;;;4.17;2.20;;;4.10;45.30;;;;;;5095549;28;20232;-82
2023/02/27 10:26:29;;;;;;;2.23;1.90;;;4.20;44.00;;;;;;5094448;28;20179;-81
2023/02/27 10:29:00;;;;;;;3.37;1.90;;;4.50;43.30;;;;;;5093051;28;20183;-80
2023/02/27 10:31:31;;;;;;;2.10;1.90;;;4.50;41.40;;;;;;5094334;28;20195;-82
2023/02/27 10:33:59;;;;;;;4.43;2.10;;;4.30;42.90;;;;;;5093315;28;20203;-83
2023/02/27 10:36:25;;;;;;;5.43;2.40;;;4.40;42.20;;;;;;5095105;28;20193;-80
2023/02/27 10:38:58;;;;;;;1.93;1.80;;;4.50;41.90;;;;;;5099043;28;20183;-83
2023/02/27 10:41:25;;;;;;;2.87;2.17;;;4.60;41.60;;;;;;5099745;28;20202;-81
2023/02/27 10:43:56;;;;;;;3.60;2.30;;;4.70;41.20;;;;;;5100465;28;20214;-80
2023/02/27 10:46:26;;;;;;;3.60;2.70;;;4.90;41.60;;;;;;5100011;28;20199;-82
2023/02/27 10:48:53;;;;;;;4.43;2.30;;;5.20;40.80;;;;;;5102269;28;20187;-83
2023/02/27 10:51:25;;;;;;;2.67;2.13;;;5.30;40.00;;;;;;5101909;28;20190;-83
2023/02/27 10:54:11;;;;;;;3.30;2.10;;;5.20;39.70;;;;;;5102174;28;20243;-82
2023/02/27 10:56:38;;;;;;;1.90;1.80;;;5.20;39.50;;;;;;5101261;28;20183;-81
2023/02/27 10:59:17;;;;;;;3.10;2.17;;;5.20;39.90;;;;;;5100820;28;20191;-83
2023/02/27 11:01:50;;;;;;;2.83;1.97;;;5.40;39.40;;;;;;5093338;28;20199;-82
2023/02/27 11:04:33;;;;;;;2.10;1.90;;;5.40;39.20;;;;;;5102689;28;20172;-83
2023/02/27 11:07:01;;;;;;;3.07;2.07;;;5.30;39.70;;;;;;5118816;28;20150;-84
2023/02/27 11:09:32;;;;;;;1.90;1.73;;;5.40;40.00;;;;;;5119547;28;20167;-83
2023/02/27 11:12:24;;;;;;;3.03;2.17;;;5.60;38.80;;;;;;5107340;28;20179;-81
2023/02/27 11:14:54;;;;;;;3.27;1.87;;;5.80;38.20;;;;;;5097708;28;20179;-84
2023/02/27 11:17:29;;;;;;;3.03;2.07;;;5.50;38.60;;;;;;5097857;28;20179;-82
2023/02/27 11:19:55;;;;;;;2.00;1.80;;;5.60;38.80;;;;;;5097981;28;20239;-84
2023/02/27 11:22:24;;;;;;;3.23;1.97;;;5.70;38.60;;;;;;5087338;28;20534;-83
2023/02/27 11:24:51;;;;;;;2.43;1.83;;;5.50;38.80;;;;;;5099004;28;20202;-82
2023/02/27 11:27:20;;;;;;;2.07;1.87;;;5.90;38.80;;;;;;5099165;28;20676;-85
2023/02/27 11:29:57;;;;;;;2.80;2.00;;;6.10;37.70;;;;;;5081849;28;20543;-84
2023/02/27 11:32:25;;;;;;;2.00;1.90;;;6.10;37.50;;;;;;5099024;28;20175;-84
2023/02/27 11:34:51;;;;;;;2.10;1.90;;;6.20;38.40;;;;;;5097487;28;20534;-83
2023/02/27 11:37:33;;;;;;;2.43;2.23;;;6.70;37.90;;;;;;5098241;28;20610;-83
2023/02/27 11:40:09;;;;;;;3.47;2.03;;;6.60;36.70;;;;;;5098811;28;20482;-82
2023/02/27 11:42:40;;;;;;;2.50;2.30;;;6.60;36.80;;;;;;5098987;28;20863;-83
2023/02/27 11:45:20;;;;;;;4.00;2.40;;;6.60;36.70;;;;;;5096121;28;20232;-83
2023/02/27 11:48:06;;;;;;;2.47;2.27;;;6.90;36.80;;;;;;5099424;28;20171;-82
2023/02/27 11:50:45;;;;;;;2.33;2.10;;;7.30;35.70;;;;;;5099671;28;20260;-82
2023/02/27 11:53:39;;;;;;;3.83;2.60;;;7.30;34.90;;;;;;5097204;28;20167;-83
2023/02/27 11:56:10;;;;;;;2.97;2.20;;;6.90;35.50;;;;;;5097611;28;20394;-82
2023/02/27 11:58:46;;;;;;;2.73;2.10;;;7.10;35.40;;;;;;5101554;28;20186;-84
2023/02/27 12:01:24;;;;;;;2.43;2.23;;;6.90;35.70;;;;;;5104716;28;20243;-83
2023/02/27 12:04:08;;;;;;;2.23;2.00;;;7.00;35.30;;;;;;5098287;28;20246;-84
2023/02/27 12:06:43;;;;;;;2.80;2.47;;;6.90;35.30;;;;;;5096267;28;20187;-83
2023/02/27 12:09:50;;;;;;;5.80;2.87;;;7.20;36.10;;;;;;5097616;28;20162;-85
2023/02/27 12:12:23;;;;;;;4.83;2.17;;;7.70;34.70;;;;;;5082996;28;20194;-81
2023/02/27 12:15:05;;;;;;;2.73;2.33;;;7.90;34.10;;;;;;5097348;28;20633;-83
2023/02/27 12:17:40;;;;;;;4.47;2.30;;;8.10;32.80;;;;;;5089047;28;20176;-84
2023/02/27 12:20:24;;;;;;;3.20;2.00;;;8.30;33.30;;;;;;5095891;28;20202;-82
2023/02/27 12:22:52;;;;;;;2.10;1.90;;;8.20;32.60;;;;;;5078485;28;20172;-82
2023/02/27 12:25:28;;;;;;;2.40;2.20;;;7.70;33.60;;;;;;5075047;28;20748;-83
2023/02/27 12:28:12;;;;;;;2.67;2.40;;;8.10;33.20;;;;;;5093663;28;20254;-82
2023/02/27 12:30:45;;;;;;;2.70;2.50;;;8.20;31.90;;;;;;5096198;28;20186;-84
2023/02/27 12:33:25;;;;;;;2.80;2.47;;;8.20;32.70;;;;;;5097297;28;20159;-84
2023/02/27 12:36:02;;;;;;;3.23;2.10;;;8.40;32.30;;;;;;5096729;28;20182;-84
2023/02/27 12:38:28;;;;;;;2.20;2.00;;;8.60;32.00;;;;;;5098043;28;20198;-81
2023/02/27 12:40:57;;;;;;;1.97;1.80;;;8.30;32.10;;;;;;5098389;28;20195;-83
2023/02/27 12:43:51;;;;;;;2.10;1.90;;;7.80;32.30;;;;;;5097830;28;20266;-83
2023/02/27 12:46:38;;;;;;;2.80;2.00;;;7.70;32.70;;;;;;5096799;28;20187;-83
2023/02/27 12:49:19;;;;;;;2.20;1.87;;;7.80;32.30;;;;;;5098647;28;20617;-81
2023/02/27 12:51:50;;;;;;;2.13;1.90;;;7.60;32.20;;;;;;5097962;28;20238;-82
2023/02/27 12:54:37;;;;;;;2.30;1.90;;;7.90;31.90;;;;;;5097943;28;20159;-81
2023/02/27 12:57:30;;;;;;;2.23;2.03;;;7.40;31.90;;;;;;5097662;28;20232;-82
2023/02/27 12:59:59;;;;;;;2.30;2.10;;;7.40;32.50;;;;;;5096083;28;20207;-82
2023/02/27 13:02:42;;;;;;;2.90;1.90;;;8.10;32.20;;;;;;5096213;28;20687;-81
2023/02/27 13:05:28;;;;;;;3.30;2.10;;;8.40;30.70;;;;;;5095194;28;20212;-82
2023/02/27 13:07:54;;;;;;;2.83;2.10;;;8.90;30.00;;;;;;5097042;28;20259;-83
2023/02/27 13:10:38;;;;;;;2.23;1.87;;;9.20;29.90;;;;;;5096270;28;20210;-81
2023/02/27 13:13:27;;;;;;;2.97;2.23;;;9.10;29.90;;;;;;5094290;28;20182;-84
2023/02/27 13:16:20;;;;;;;2.10;1.90;;;8.40;30.10;;;;;;5095514;28;20277;-83
2023/02/27 13:19:03;;;;;;;2.53;1.97;;;8.80;30.10;;;;;;5096573;28;20183;-83
2023/02/27 13:21:35;;;;;;;2.30;2.10;;;8.70;29.40;;;;;;5085454;28;20195;-84
2023/02/27 13:24:27;;;;;;;3.67;2.40;;;9.00;29.20;;;;;;5090946;28;20182;-83